sensor_id;sensor_type;location;lat;lon;timestamp;pressure;altitude;pressure_sealevel;temperature;humidity
49529;BME280;35423;37.320;-121.762;2023-03-30T00:01:54;99167.28;;;18.65;29.48
49529;BME280;35423;37.320;-121.762;2023-03-30T00:04:26;99165.42;;;18.17;29.27
49529;BME280;35423;37.320;-121.762;2023-03-30T00:06:49;99165.49;;;18.02;29.88
49529;BME280;35423;37.320;-121.762;2023-03-30T00:09:18;99167.90;;;17.92;30.09
49529;BME280;35423;37.320;-121.762;2023-03-30T00:11:45;99171.01;;;18.34;30.53
49529;BME280;35423;37.320;-121.762;2023-03-30T00:14:22;99172.42;;;18.75;30.58
49529;BME280;35423;37.320;-121.762;2023-03-30T00:16:46;99178.89;;;18.71;29.87
49529;BME280;35423;37.320;-121.762;2023-03-30T00:19:14;99184.26;;;18.12;29.72
49529;BME280;35423;37.320;-121.762;2023-03-30T00:21:40;99201.14;;;17.80;30.16
49529;BME280;35423;37.320;-121.762;2023-03-30T00:24:13;99198.08;;;17.38;31.33
49529;BME280;35423;37.320;-121.762;2023-03-30T00:26:35;99195.36;;;17.60;31.98
49529;BME280;35423;37.320;-121.762;2023-03-30T00:29:02;99192.72;;;17.50;32.26
49529;BME280;35423;37.320;-121.762;2023-03-30T00:31:29;99193.24;;;17.07;32.29
49529;BME280;35423;37.320;-121.762;2023-03-30T00:33:54;99197.85;;;17.15;32.79
49529;BME280;35423;37.320;-121.762;2023-03-30T00:36:22;99199.08;;;16.97;33.32
49529;BME280;35423;37.320;-121.762;2023-03-30T00:38:48;99202.02;;;17.06;33.41
49529;BME280;35423;37.320;-121.762;2023-03-30T00:41:14;99205.37;;;17.31;33.42
49529;BME280;35423;37.320;-121.762;2023-03-30T00:46:06;99208.66;;;16.86;32.75
49529;BME280;35423;37.320;-121.762;2023-03-30T00:48:35;99209.24;;;16.80;32.83
49529;BME280;35423;37.320;-121.762;2023-03-30T00:51:02;99210.39;;;16.68;33.05
49529;BME280;35423;37.320;-121.762;2023-03-30T00:53:40;99216.16;;;16.86;32.80
49529;BME280;35423;37.320;-121.762;2023-03-30T00:56:05;99222.74;;;16.73;33.28
49529;BME280;35423;37.320;-121.762;2023-03-30T00:58:31;99230.06;;;16.42;33.67
49529;BME280;35423;37.320;-121.762;2023-03-30T01:00:59;99221.25;;;16.31;34.46
49529;BME280;35423;37.320;-121.762;2023-03-30T01:03:28;99219.01;;;16.43;34.83
49529;BME280;35423;37.320;-121.762;2023-03-30T01:05:52;99217.78;;;16.65;34.75
49529;BME280;35423;37.320;-121.762;2023-03-30T01:08:18;99215.58;;;16.91;34.86
49529;BME280;35423;37.320;-121.762;2023-03-30T01:10:45;99211.77;;;16.87;34.50
49529;BME280;35423;37.320;-121.762;2023-03-30T01:13:12;99207.59;;;16.83;33.66
49529;BME280;35423;37.320;-121.762;2023-03-30T01:15:52;99205.15;;;16.91;33.79
49529;BME280;35423;37.320;-121.762;2023-03-30T01:18:20;99205.35;;;16.98;33.85
49529;BME280;35423;37.320;-121.762;2023-03-30T01:23:21;99208.41;;;17.13;33.30
49529;BME280;35423;37.320;-121.762;2023-03-30T01:25:46;99207.88;;;16.68;33.40
49529;BME280;35423;37.320;-121.762;2023-03-30T01:28:17;99208.91;;;16.50;33.36
49529;BME280;35423;37.320;-121.762;2023-03-30T01:38:06;99197.46;;;16.41;33.87
49529;BME280;35423;37.320;-121.762;2023-03-30T01:40:22;99196.76;;;16.39;33.80
49529;BME280;35423;37.320;-121.762;2023-03-30T01:42:53;99197.84;;;16.32;33.95
49529;BME280;35423;37.320;-121.762;2023-03-30T01:45:16;99197.60;;;16.27;33.93
49529;BME280;35423;37.320;-121.762;2023-03-30T01:47:40;99197.96;;;16.47;33.51
49529;BME280;35423;37.320;-121.762;2023-03-30T01:50:09;99196.59;;;16.37;33.32
49529;BME280;35423;37.320;-121.762;2023-03-30T01:52:34;99200.20;;;16.07;33.47
49529;BME280;35423;37.320;-121.762;2023-03-30T01:55:00;99205.01;;;16.03;33.47
49529;BME280;35423;37.320;-121.762;2023-03-30T01:57:46;99210.30;;;16.35;33.18
49529;BME280;35423;37.320;-121.762;2023-03-30T02:00:17;99215.00;;;16.26;32.98
49529;BME280;35423;37.320;-121.762;2023-03-30T02:02:38;99215.26;;;15.95;33.04
49529;BME280;35423;37.320;-121.762;2023-03-30T02:05:05;99214.88;;;16.26;32.93
49529;BME280;35423;37.320;-121.762;2023-03-30T02:07:32;99209.65;;;16.22;32.91
49529;BME280;35423;37.320;-121.762;2023-03-30T02:10:00;99207.02;;;16.18;32.91
49529;BME280;35423;37.320;-121.762;2023-03-30T02:12:25;99205.32;;;16.40;32.94
49529;BME280;35423;37.320;-121.762;2023-03-30T02:14:55;99205.49;;;16.17;32.92
49529;BME280;35423;37.320;-121.762;2023-03-30T02:17:22;99204.99;;;16.42;32.82
49529;BME280;35423;37.320;-121.762;2023-03-30T02:19:47;99203.32;;;16.17;32.76
49529;BME280;35423;37.320;-121.762;2023-03-30T02:22:14;99202.91;;;16.39;32.73
49529;BME280;35423;37.320;-121.762;2023-03-30T02:24:40;99205.45;;;15.85;32.74
49529;BME280;35423;37.320;-121.762;2023-03-30T02:27:06;99214.93;;;16.11;32.81
49529;BME280;35423;37.320;-121.762;2023-03-30T02:29:36;99213.98;;;16.31;33.04
49529;BME280;35423;37.320;-121.762;2023-03-30T02:32:02;99215.98;;;15.95;33.24
49529;BME280;35423;37.320;-121.762;2023-03-30T02:34:40;99217.63;;;16.08;33.35
49529;BME280;35423;37.320;-121.762;2023-03-30T02:37:07;99219.65;;;16.00;33.53
49529;BME280;35423;37.320;-121.762;2023-03-30T02:39:27;99223.17;;;15.73;33.72
49529;BME280;35423;37.320;-121.762;2023-03-30T02:41:59;99224.77;;;15.98;33.82
49529;BME280;35423;37.320;-121.762;2023-03-30T02:44:21;99225.57;;;15.91;33.73
49529;BME280;35423;37.320;-121.762;2023-03-30T02:49:12;99230.53;;;15.60;33.94
49529;BME280;35423;37.320;-121.762;2023-03-30T02:51:39;99240.00;;;15.80;33.86
49529;BME280;35423;37.320;-121.762;2023-03-30T02:54:02;99245.36;;;15.57;33.68
49529;BME280;35423;37.320;-121.762;2023-03-30T02:56:35;99250.45;;;15.78;33.57
49529;BME280;35423;37.320;-121.762;2023-03-30T02:59:02;99252.61;;;15.80;33.46
49529;BME280;35423;37.320;-121.762;2023-03-30T03:01:27;99256.25;;;15.72;33.19
49529;BME280;35423;37.320;-121.762;2023-03-30T03:03:52;99257.49;;;15.69;33.25
49529;BME280;35423;37.320;-121.762;2023-03-30T03:06:17;99258.88;;;15.73;33.23
49529;BME280;35423;37.320;-121.762;2023-03-30T03:08:52;99260.94;;;15.70;33.19
49529;BME280;35423;37.320;-121.762;2023-03-30T03:11:16;99263.35;;;15.41;33.21
49529;BME280;35423;37.320;-121.762;2023-03-30T03:13:43;99271.23;;;15.56;33.18
49529;BME280;35423;37.320;-121.762;2023-03-30T03:16:13;99272.59;;;15.64;33.41
49529;BME280;35423;37.320;-121.762;2023-03-30T03:18:39;99270.31;;;15.63;33.69
49529;BME280;35423;37.320;-121.762;2023-03-30T03:21:09;99271.33;;;15.63;33.88
49529;BME280;35423;37.320;-121.762;2023-03-30T03:23:36;99269.30;;;15.41;33.99
49529;BME280;35423;37.320;-121.762;2023-03-30T03:26:05;99273.60;;;15.70;33.83
49529;BME280;35423;37.320;-121.762;2023-03-30T03:28:34;99277.10;;;15.68;33.47
49529;BME280;35423;37.320;-121.762;2023-03-30T03:31:07;99278.00;;;15.63;33.57
49529;BME280;35423;37.320;-121.762;2023-03-30T03:33:28;99281.32;;;15.61;33.57
49529;BME280;35423;37.320;-121.762;2023-03-30T03:35:54;99284.46;;;15.56;33.52
49529;BME280;35423;37.320;-121.762;2023-03-30T03:38:21;99289.74;;;15.54;33.63
49529;BME280;35423;37.320;-121.762;2023-03-30T03:40:49;99291.22;;;15.53;33.84
49529;BME280;35423;37.320;-121.762;2023-03-30T03:43:14;99295.96;;;15.54;34.12
49529;BME280;35423;37.320;-121.762;2023-03-30T03:45:40;99295.19;;;15.54;34.08
49529;BME280;35423;37.320;-121.762;2023-03-30T03:48:13;99297.47;;;15.52;33.96
49529;BME280;35423;37.320;-121.762;2023-03-30T03:50:41;99298.72;;;15.45;33.89
49529;BME280;35423;37.320;-121.762;2023-03-30T03:53:16;99301.47;;;15.40;33.98
49529;BME280;35423;37.320;-121.762;2023-03-30T03:55:42;99304.56;;;15.27;33.96
49529;BME280;35423;37.320;-121.762;2023-03-30T03:58:09;99306.78;;;15.23;34.04
49529;BME280;35423;37.320;-121.762;2023-03-30T04:00:38;99312.75;;;15.11;33.92
49529;BME280;35423;37.320;-121.762;2023-03-30T04:03:00;99313.31;;;15.08;33.95
49529;BME280;35423;37.320;-121.762;2023-03-30T04:05:28;99318.00;;;15.02;33.78
49529;BME280;35423;37.320;-121.762;2023-03-30T04:07:59;99321.07;;;15.26;33.81
49529;BME280;35423;37.320;-121.762;2023-03-30T04:10:26;99324.96;;;14.96;33.98
49529;BME280;35423;37.320;-121.762;2023-03-30T04:12:55;99327.10;;;15.09;34.24
49529;BME280;35423;37.320;-121.762;2023-03-30T04:15:23;99328.29;;;15.21;34.36
49529;BME280;35423;37.320;-121.762;2023-03-30T04:17:50;99327.87;;;14.68;34.40
49529;BME280;35423;37.320;-121.762;2023-03-30T04:20:19;99330.16;;;14.81;34.50
49529;BME280;35423;37.320;-121.762;2023-03-30T04:22:45;99334.87;;;14.47;34.56
49529;BME280;35423;37.320;-121.762;2023-03-30T04:25:12;99339.48;;;14.42;34.67
49529;BME280;35423;37.320;-121.762;2023-03-30T04:27:38;99345.64;;;14.37;34.46
49529;BME280;35423;37.320;-121.762;2023-03-30T04:30:05;99349.38;;;14.58;34.36
49529;BME280;35423;37.320;-121.762;2023-03-30T04:32:33;99351.28;;;14.58;34.46
49529;BME280;35423;37.320;-121.762;2023-03-30T04:35:03;99351.85;;;14.58;34.23
49529;BME280;35423;37.320;-121.762;2023-03-30T04:37:28;99350.88;;;14.29;33.83
49529;BME280;35423;37.320;-121.762;2023-03-30T04:40:00;99352.58;;;14.54;33.70
49529;BME280;35423;37.320;-121.762;2023-03-30T04:42:24;99357.66;;;14.30;33.44
49529;BME280;35423;37.320;-121.762;2023-03-30T04:44:53;99362.11;;;14.25;33.59
49529;BME280;35423;37.320;-121.762;2023-03-30T04:47:22;99359.80;;;14.70;33.61
49529;BME280;35423;37.320;-121.762;2023-03-30T04:49:47;99359.64;;;14.12;33.59
49529;BME280;35423;37.320;-121.762;2023-03-30T04:52:16;99357.10;;;14.53;33.59
49529;BME280;35423;37.320;-121.762;2023-03-30T04:54:41;99358.98;;;14.53;33.74
49529;BME280;35423;37.320;-121.762;2023-03-30T04:57:07;99361.92;;;14.46;33.66
49529;BME280;35423;37.320;-121.762;2023-03-30T04:59:38;99367.93;;;14.42;33.71
49529;BME280;35423;37.320;-121.762;2023-03-30T05:02:08;99371.82;;;14.42;33.74
49529;BME280;35423;37.320;-121.762;2023-03-30T05:04:35;99375.37;;;14.44;33.52
49529;BME280;35423;37.320;-121.762;2023-03-30T05:07:02;99377.42;;;14.50;33.50
49529;BME280;35423;37.320;-121.762;2023-03-30T05:09:27;99377.63;;;14.55;33.26
49529;BME280;35423;37.320;-121.762;2023-03-30T05:11:52;99379.35;;;14.56;33.23
49529;BME280;35423;37.320;-121.762;2023-03-30T05:14:27;99379.20;;;14.62;33.21
49529;BME280;35423;37.320;-121.762;2023-03-30T05:16:55;99383.48;;;14.60;33.13
49529;BME280;35423;37.320;-121.762;2023-03-30T05:19:29;99387.25;;;14.62;33.08
49529;BME280;35423;37.320;-121.762;2023-03-30T05:21:54;99386.61;;;14.65;32.90
49529;BME280;35423;37.320;-121.762;2023-03-30T05:24:23;99390.77;;;14.46;32.95
49529;BME280;35423;37.320;-121.762;2023-03-30T05:27:04;99387.72;;;14.76;33.18
49529;BME280;35423;37.320;-121.762;2023-03-30T05:29:31;99386.00;;;14.78;33.35
49529;BME280;35423;37.320;-121.762;2023-03-30T05:32:00;99389.22;;;14.82;33.45
49529;BME280;35423;37.320;-121.762;2023-03-30T05:34:28;99389.17;;;14.82;33.62
49529;BME280;35423;37.320;-121.762;2023-03-30T05:36:54;99387.81;;;14.58;33.85
49529;BME280;35423;37.320;-121.762;2023-03-30T05:39:28;99386.95;;;14.57;34.03
49529;BME280;35423;37.320;-121.762;2023-03-30T05:41:56;99389.81;;;14.55;34.18
49529;BME280;35423;37.320;-121.762;2023-03-30T05:44:24;99390.70;;;14.49;34.24
49529;BME280;35423;37.320;-121.762;2023-03-30T05:46:57;99393.35;;;14.62;34.38
49529;BME280;35423;37.320;-121.762;2023-03-30T05:49:23;99397.98;;;14.36;34.54
49529;BME280;35423;37.320;-121.762;2023-03-30T05:51:50;99400.27;;;14.53;34.67
49529;BME280;35423;37.320;-121.762;2023-03-30T05:54:16;99397.79;;;14.22;34.85
49529;BME280;35423;37.320;-121.762;2023-03-30T05:56:43;99397.90;;;14.36;34.95
49529;BME280;35423;37.320;-121.762;2023-03-30T05:59:20;99399.54;;;14.24;35.14
49529;BME280;35423;37.320;-121.762;2023-03-30T06:01:47;99399.13;;;14.15;35.29
49529;BME280;35423;37.320;-121.762;2023-03-30T06:04:13;99402.39;;;14.29;35.42
49529;BME280;35423;37.320;-121.762;2023-03-30T06:06:41;99402.96;;;14.21;35.47
49529;BME280;35423;37.320;-121.762;2023-03-30T06:09:05;99403.57;;;13.92;35.45
49529;BME280;35423;37.320;-121.762;2023-03-30T06:11:37;99405.47;;;13.84;35.42
49529;BME280;35423;37.320;-121.762;2023-03-30T06:14:04;99406.97;;;13.73;35.52
49529;BME280;35423;37.320;-121.762;2023-03-30T06:16:34;99409.98;;;13.88;35.61
49529;BME280;35423;37.320;-121.762;2023-03-30T06:19:01;99411.79;;;13.85;35.68
49529;BME280;35423;37.320;-121.762;2023-03-30T06:21:27;99413.76;;;13.78;35.74
49529;BME280;35423;37.320;-121.762;2023-03-30T06:23:52;99411.19;;;13.53;35.80
49529;BME280;35423;37.320;-121.762;2023-03-30T06:26:20;99412.34;;;13.67;35.92
49529;BME280;35423;37.320;-121.762;2023-03-30T06:28:48;99410.78;;;13.61;35.94
49529;BME280;35423;37.320;-121.762;2023-03-30T06:31:21;99412.84;;;13.54;35.89
49529;BME280;35423;37.320;-121.762;2023-03-30T06:33:53;99414.33;;;13.47;35.83
49529;BME280;35423;37.320;-121.762;2023-03-30T06:36:18;99413.06;;;13.44;35.63
49529;BME280;35423;37.320;-121.762;2023-03-30T06:38:45;99410.64;;;13.37;35.41
49529;BME280;35423;37.320;-121.762;2023-03-30T06:41:14;99413.14;;;13.55;35.30
49529;BME280;35423;37.320;-121.762;2023-03-30T06:43:48;99417.46;;;12.99;35.38
49529;BME280;35423;37.320;-121.762;2023-03-30T06:46:12;99418.00;;;13.45;35.59
49529;BME280;35423;37.320;-121.762;2023-03-30T06:48:45;99420.55;;;13.42;35.84
49529;BME280;35423;37.320;-121.762;2023-03-30T06:51:13;99420.58;;;13.41;35.95
49529;BME280;35423;37.320;-121.762;2023-03-30T06:53:38;99420.50;;;13.14;36.01
49529;BME280;35423;37.320;-121.762;2023-03-30T06:56:14;99420.76;;;13.44;35.97
49529;BME280;35423;37.320;-121.762;2023-03-30T06:58:40;99420.07;;;13.43;35.99
49529;BME280;35423;37.320;-121.762;2023-03-30T07:01:11;99423.90;;;13.38;35.95
49529;BME280;35423;37.320;-121.762;2023-03-30T07:03:45;99424.62;;;13.43;35.87
49529;BME280;35423;37.320;-121.762;2023-03-30T07:06:22;99425.41;;;13.15;35.88
49529;BME280;35423;37.320;-121.762;2023-03-30T07:08:49;99423.87;;;13.15;35.93
49529;BME280;35423;37.320;-121.762;2023-03-30T07:11:14;99430.22;;;13.17;35.89
49529;BME280;35423;37.320;-121.762;2023-03-30T07:13:40;99433.22;;;13.45;35.94
49529;BME280;35423;37.320;-121.762;2023-03-30T07:16:06;99438.27;;;13.47;35.86
49529;BME280;35423;37.320;-121.762;2023-03-30T07:18:31;99442.33;;;13.19;35.81
49529;BME280;35423;37.320;-121.762;2023-03-30T07:20:59;99443.01;;;13.46;35.72
49529;BME280;35423;37.320;-121.762;2023-03-30T07:23:24;99444.23;;;13.17;35.61
49529;BME280;35423;37.320;-121.762;2023-03-30T07:25:51;99443.66;;;13.40;35.50
49529;BME280;35423;37.320;-121.762;2023-03-30T07:28:18;99446.34;;;13.40;35.50
49529;BME280;35423;37.320;-121.762;2023-03-30T07:30:44;99446.52;;;13.13;35.48
49529;BME280;35423;37.320;-121.762;2023-03-30T07:33:13;99445.78;;;13.09;35.48
49529;BME280;35423;37.320;-121.762;2023-03-30T07:35:44;99446.51;;;13.28;35.57
49529;BME280;35423;37.320;-121.762;2023-03-30T07:38:05;99448.38;;;13.44;35.68
49529;BME280;35423;37.320;-121.762;2023-03-30T07:40:34;99453.96;;;13.17;35.71
49529;BME280;35423;37.320;-121.762;2023-03-30T07:43:03;99457.28;;;13.12;35.76
49529;BME280;35423;37.320;-121.762;2023-03-30T07:45:29;99458.65;;;13.07;35.81
49529;BME280;35423;37.320;-121.762;2023-03-30T07:47:54;99455.85;;;13.00;35.85
49529;BME280;35423;37.320;-121.762;2023-03-30T07:50:22;99457.40;;;12.71;35.89
49529;BME280;35423;37.320;-121.762;2023-03-30T07:52:52;99462.97;;;12.94;35.91
49529;BME280;35423;37.320;-121.762;2023-03-30T07:55:13;99463.15;;;12.88;35.89
49529;BME280;35423;37.320;-121.762;2023-03-30T07:57:39;99463.76;;;12.81;35.88
49529;BME280;35423;37.320;-121.762;2023-03-30T08:00:07;99466.18;;;12.74;35.95
49529;BME280;35423;37.320;-121.762;2023-03-30T08:02:32;99471.10;;;12.73;35.98
49529;BME280;35423;37.320;-121.762;2023-03-30T08:05:00;99475.24;;;13.22;36.07
49529;BME280;35423;37.320;-121.762;2023-03-30T08:07:25;99481.85;;;12.73;36.07
49529;BME280;35423;37.320;-121.762;2023-03-30T08:09:52;99488.61;;;12.71;36.09
49529;BME280;35423;37.320;-121.762;2023-03-30T08:12:18;99497.20;;;12.77;35.97
49529;BME280;35423;37.320;-121.762;2023-03-30T08:14:43;99501.13;;;12.73;35.99
49529;BME280;35423;37.320;-121.762;2023-03-30T08:17:10;99502.61;;;12.96;36.01
49529;BME280;35423;37.320;-121.762;2023-03-30T08:19:36;99503.74;;;12.71;36.14
49529;BME280;35423;37.320;-121.762;2023-03-30T08:22:01;99510.36;;;12.72;36.21
49529;BME280;35423;37.320;-121.762;2023-03-30T08:24:30;99513.08;;;12.73;36.27
49529;BME280;35423;37.320;-121.762;2023-03-30T08:27:01;99516.60;;;12.68;36.28
49529;BME280;35423;37.320;-121.762;2023-03-30T08:29:27;99513.45;;;12.65;36.25
49529;BME280;35423;37.320;-121.762;2023-03-30T08:31:52;99515.06;;;12.61;36.29
49529;BME280;35423;37.320;-121.762;2023-03-30T08:34:20;99516.83;;;12.60;36.30
49529;BME280;35423;37.320;-121.762;2023-03-30T08:36:45;99518.54;;;12.61;36.24
49529;BME280;35423;37.320;-121.762;2023-03-30T08:39:13;99516.13;;;12.80;36.17
49529;BME280;35423;37.320;-121.762;2023-03-30T08:41:51;99512.10;;;12.55;36.15
49529;BME280;35423;37.320;-121.762;2023-03-30T08:44:18;99513.06;;;12.54;36.14
49529;BME280;35423;37.320;-121.762;2023-03-30T08:46:42;99514.72;;;12.51;36.17
49529;BME280;35423;37.320;-121.762;2023-03-30T08:49:11;99517.56;;;12.71;36.26
49529;BME280;35423;37.320;-121.762;2023-03-30T08:51:41;99521.19;;;12.45;36.37
49529;BME280;35423;37.320;-121.762;2023-03-30T08:54:05;99526.55;;;12.40;36.47
49529;BME280;35423;37.320;-121.762;2023-03-30T08:56:31;99537.26;;;12.38;36.50
49529;BME280;35423;37.320;-121.762;2023-03-30T08:59:03;99539.19;;;12.34;36.55
49529;BME280;35423;37.320;-121.762;2023-03-30T09:01:23;99538.21;;;12.33;36.59
49529;BME280;35423;37.320;-121.762;2023-03-30T09:06:18;99540.40;;;12.43;36.60
49529;BME280;35423;37.320;-121.762;2023-03-30T09:08:43;99541.18;;;12.17;36.66
49529;BME280;35423;37.320;-121.762;2023-03-30T09:11:15;99540.33;;;12.61;36.68
49529;BME280;35423;37.320;-121.762;2023-03-30T09:13:42;99540.32;;;12.08;36.66
49529;BME280;35423;37.320;-121.762;2023-03-30T09:16:15;99540.18;;;12.26;36.68
49529;BME280;35423;37.320;-121.762;2023-03-30T09:18:33;99538.66;;;12.05;36.73
49529;BME280;35423;37.320;-121.762;2023-03-30T09:21:00;99542.42;;;12.36;36.78
49529;BME280;35423;37.320;-121.762;2023-03-30T09:23:28;99542.54;;;12.45;36.73
49529;BME280;35423;37.320;-121.762;2023-03-30T09:25:57;99539.37;;;12.29;36.64
49529;BME280;35423;37.320;-121.762;2023-03-30T09:28:25;99533.07;;;12.57;36.57
49529;BME280;35423;37.320;-121.762;2023-03-30T09:30:49;99528.10;;;12.55;36.57
49529;BME280;35423;37.320;-121.762;2023-03-30T09:33:21;99529.52;;;12.30;36.55
49529;BME280;35423;37.320;-121.762;2023-03-30T09:35:41;99536.15;;;12.46;36.62
49529;BME280;35423;37.320;-121.762;2023-03-30T09:38:10;99542.05;;;12.50;36.74
49529;BME280;35423;37.320;-121.762;2023-03-30T09:40:44;99543.82;;;12.49;36.86
49529;BME280;35423;37.320;-121.762;2023-03-30T09:43:09;99541.92;;;12.28;36.89
49529;BME280;35423;37.320;-121.762;2023-03-30T09:45:31;99542.28;;;12.28;36.80
49529;BME280;35423;37.320;-121.762;2023-03-30T09:47:55;99544.41;;;12.72;36.75
49529;BME280;35423;37.320;-121.762;2023-03-30T09:50:24;99545.92;;;12.40;36.77
49529;BME280;35423;37.320;-121.762;2023-03-30T09:52:54;99550.21;;;12.13;36.79
49529;BME280;35423;37.320;-121.762;2023-03-30T09:55:22;99548.81;;;12.11;36.77
49529;BME280;35423;37.320;-121.762;2023-03-30T09:57:43;99551.23;;;12.31;36.76
49529;BME280;35423;37.320;-121.762;2023-03-30T10:05:16;99553.77;;;12.25;36.83
49529;BME280;35423;37.320;-121.762;2023-03-30T10:07:37;99556.76;;;12.26;36.82
49529;BME280;35423;37.320;-121.762;2023-03-30T10:10:11;99560.55;;;12.26;36.87
49529;BME280;35423;37.320;-121.762;2023-03-30T10:12:34;99562.04;;;12.30;36.80
49529;BME280;35423;37.320;-121.762;2023-03-30T10:15:02;99563.68;;;12.33;36.87
49529;BME280;35423;37.320;-121.762;2023-03-30T10:17:41;99567.10;;;12.66;36.97
49529;BME280;35423;37.320;-121.762;2023-03-30T10:20:21;99570.37;;;12.49;37.02
49529;BME280;35423;37.320;-121.762;2023-03-30T10:22:37;99573.80;;;12.38;37.03
49529;BME280;35423;37.320;-121.762;2023-03-30T10:25:13;99575.15;;;12.71;36.97
49529;BME280;35423;37.320;-121.762;2023-03-30T10:27:41;99576.01;;;12.55;36.93
49529;BME280;35423;37.320;-121.762;2023-03-30T10:30:09;99579.54;;;12.80;36.97
49529;BME280;35423;37.320;-121.762;2023-03-30T10:32:29;99582.26;;;12.64;36.98
49529;BME280;35423;37.320;-121.762;2023-03-30T10:35:00;99583.83;;;13.20;36.95
49529;BME280;35423;37.320;-121.762;2023-03-30T10:37:30;99584.81;;;13.29;36.89
49529;BME280;35423;37.320;-121.762;2023-03-30T10:40:00;99584.89;;;12.81;36.91
49529;BME280;35423;37.320;-121.762;2023-03-30T10:42:23;99580.08;;;12.85;36.89
49529;BME280;35423;37.320;-121.762;2023-03-30T10:44:49;99580.63;;;12.87;36.85
49529;BME280;35423;37.320;-121.762;2023-03-30T10:47:31;99577.34;;;13.12;36.73
49529;BME280;35423;37.320;-121.762;2023-03-30T10:49:49;99575.73;;;13.07;36.76
49529;BME280;35423;37.320;-121.762;2023-03-30T10:52:13;99574.97;;;12.87;36.77
49529;BME280;35423;37.320;-121.762;2023-03-30T10:54:43;99578.58;;;12.85;36.80
49529;BME280;35423;37.320;-121.762;2023-03-30T10:57:11;99578.12;;;12.83;36.82
49529;BME280;35423;37.320;-121.762;2023-03-30T11:04:33;99575.80;;;12.74;36.82
49529;BME280;35423;37.320;-121.762;2023-03-30T11:06:57;99577.33;;;12.89;36.85
49529;BME280;35423;37.320;-121.762;2023-03-30T11:09:27;99581.17;;;12.59;36.89
49529;BME280;35423;37.320;-121.762;2023-03-30T11:11:53;99583.39;;;12.73;36.90
49529;BME280;35423;37.320;-121.762;2023-03-30T11:14:20;99582.89;;;12.41;36.98
49529;BME280;35423;37.320;-121.762;2023-03-30T11:16:46;99584.24;;;12.79;36.95
49529;BME280;35423;37.320;-121.762;2023-03-30T11:19:12;99579.90;;;12.68;36.95
49529;BME280;35423;37.320;-121.762;2023-03-30T11:21:36;99582.63;;;12.60;36.97
49529;BME280;35423;37.320;-121.762;2023-03-30T11:24:02;99585.38;;;12.04;37.11
49529;BME280;35423;37.320;-121.762;2023-03-30T11:26:36;99588.14;;;12.50;37.18
49529;BME280;35423;37.320;-121.762;2023-03-30T11:29:19;99587.12;;;12.20;37.19
49529;BME280;35423;37.320;-121.762;2023-03-30T11:31:38;99593.19;;;12.20;37.17
49529;BME280;35423;37.320;-121.762;2023-03-30T11:33:59;99594.08;;;11.95;37.20
49529;BME280;35423;37.320;-121.762;2023-03-30T11:36:20;99593.62;;;12.43;37.26
49529;BME280;35423;37.320;-121.762;2023-03-30T11:38:45;99596.48;;;12.44;37.23
49529;BME280;35423;37.320;-121.762;2023-03-30T11:41:17;99596.65;;;12.16;37.19
49529;BME280;35423;37.320;-121.762;2023-03-30T11:43:41;99594.93;;;12.13;37.12
49529;BME280;35423;37.320;-121.762;2023-03-30T11:46:11;99594.49;;;11.88;37.05
49529;BME280;35423;37.320;-121.762;2023-03-30T11:48:46;99594.09;;;12.33;37.08
49529;BME280;35423;37.320;-121.762;2023-03-30T11:51:12;99593.26;;;12.31;37.14
49529;BME280;35423;37.320;-121.762;2023-03-30T11:53:32;99597.20;;;12.32;37.20
49529;BME280;35423;37.320;-121.762;2023-03-30T11:56:07;99601.50;;;12.36;37.24
49529;BME280;35423;37.320;-121.762;2023-03-30T11:58:35;99601.19;;;12.36;37.27
49529;BME280;35423;37.320;-121.762;2023-03-30T12:03:33;99601.94;;;12.31;37.32
49529;BME280;35423;37.320;-121.762;2023-03-30T12:05:46;99601.52;;;12.27;37.26
49529;BME280;35423;37.320;-121.762;2023-03-30T12:08:33;99601.68;;;11.79;37.16
49529;BME280;35423;37.320;-121.762;2023-03-30T12:10:40;99601.73;;;12.19;37.20
49529;BME280;35423;37.320;-121.762;2023-03-30T12:13:21;99601.29;;;12.34;37.25
49529;BME280;35423;37.320;-121.762;2023-03-30T12:15:51;99601.33;;;12.05;37.32
49529;BME280;35423;37.320;-121.762;2023-03-30T12:18:23;99606.51;;;11.99;37.42
49529;BME280;35423;37.320;-121.762;2023-03-30T12:20:57;99609.02;;;12.18;37.52
49529;BME280;35423;37.320;-121.762;2023-03-30T12:23:27;99609.28;;;11.91;37.62
49529;BME280;35423;37.320;-121.762;2023-03-30T12:25:57;99611.68;;;11.89;37.71
49529;BME280;35423;37.320;-121.762;2023-03-30T12:28:12;99609.36;;;11.92;37.69
49529;BME280;35423;37.320;-121.762;2023-03-30T12:30:41;99612.30;;;11.87;37.71
49529;BME280;35423;37.320;-121.762;2023-03-30T12:33:05;99611.88;;;11.87;37.71
49529;BME280;35423;37.320;-121.762;2023-03-30T12:37:53;99611.62;;;11.93;37.76
49529;BME280;35423;37.320;-121.762;2023-03-30T12:40:19;99616.02;;;11.95;37.80
49529;BME280;35423;37.320;-121.762;2023-03-30T12:42:50;99615.75;;;11.98;37.81
49529;BME280;35423;37.320;-121.762;2023-03-30T12:45:21;99612.72;;;12.20;37.72
49529;BME280;35423;37.320;-121.762;2023-03-30T12:47:45;99613.25;;;11.95;37.71
49529;BME280;35423;37.320;-121.762;2023-03-30T12:52:36;99617.29;;;11.96;37.66
49529;BME280;35423;37.320;-121.762;2023-03-30T12:55:11;99622.88;;;11.95;37.66
49529;BME280;35423;37.320;-121.762;2023-03-30T12:57:35;99623.33;;;11.96;37.72
49529;BME280;35423;37.320;-121.762;2023-03-30T13:02:28;99621.25;;;12.04;37.69
49529;BME280;35423;37.320;-121.762;2023-03-30T13:04:43;99623.22;;;12.33;37.71
49529;BME280;35423;37.320;-121.762;2023-03-30T13:07:16;99626.21;;;12.17;37.66
49529;BME280;35423;37.320;-121.762;2023-03-30T13:09:51;99627.68;;;12.44;37.65